viernes, 15 de noviembre de 2013

Overrun de un Embraer de Austral en el Aeropuerto Ezeiza


METAR de esta mañana

SAEZ 150846Z 25020G34KT 3000 RA SCT004 BKN010 OVC060 19/18 Q1005
SAEZ 150800Z 11002KT 9000 -RA SCT010 BKN070 19/18 Q1002





Foto: @juanmccornejo
minutouno.com

Audio de la TWR Ezeiza y BAIRES
video



LV-CKZ - El viento al momento del aterrizaje era de los 260/17 con ráfagas de 35 nudos, aparentemente aterrizó con una componente de cola, a causa que la pista 17/35 estaba fuera de uso, el techo muy bajo como para circular a la pista 29.

Al momento el ILS de la pista 11 quedó fuera de servicio

4 comentarios:

  1. Ayer, de pasajero, me tocó en el vuelo LAN4279 hacer una frustrada en SAZN. Un fuertísimo viento de 270/30 nudos, arrachados, hizo flotar el avión hasta la mitad de la pista. A pesar de haber alcanzado a poner las 3 ruedas al piso, los pilotos no dudaron en dar potencia y vuelta arriba...20 min. mas de espera hasta que entró un Aerolíneas y un aterrizaje perfecto al segundo intento.
    Felicitaciones a los pilotos por la atenta y oportuna maniobra.

    ResponderEliminar
  2. Visto que en pocos días, y a raiz de 3 incidentes, Aerolíneas Argentinas y Austral cuentan con 3 aviones menos para sus operaciones inmediatas, estaría bueno que quienes tienen acceso a informaciones e imágenes nos vayan contando con detalle los daños materiales sufridos por las aeronaves y su progreso para la vuelta al servicio.

    ResponderEliminar
  3. Y otro tema: ¿qué va a pasar con el ILS? ¿Cuánto tardarán en arreglarlo? ¿Le darán la prioridad que se merece? Gracias...

    ResponderEliminar
  4. me gustaria ver las imagenes en vivo,se que hay una fimacion que paso un canal de aire y no la hallo!!!

    ResponderEliminar